Flight Track Log - Related Links

Times and Time Zones

All times are in EDT time to prevent confusion due to time zone crossing. See the CHQ6069 flight status page for this flight to view local times or setup timezone preferences in your user account.

Time Position Orientation Groundspeed Altitude Reporting Facility
EDT Latitude Longitude Course Direction KTS MPH feet Rate Location/Type
Fri 11:37:39 AM 32.8722 -79.9889 28° Northeast 223 257 3,400  Level Jacksonville Center
Fri 11:38:39 AM 32.8997 -79.9139 66° East 262 302 5,300 2,050 Climbing Jacksonville Center
Fri 11:39:00 AM 33.0553 -79.6061 59° Northeast  Level FlightAware Approximate
Fri 11:39:39 AM 32.9436 -79.8356 56° Northeast 280 322 7,500  Level Jacksonville Center
Fri 11:40:00 AM 33.1124 -79.5072 54° Northeast  Level FlightAware Approximate
Fri 11:40:39 AM 32.9897 -79.7572 55° Northeast 291 335 9,800  Level Jacksonville Center
Fri 11:41:00 AM 33.1714 -79.4096 51° Northeast  Level FlightAware Approximate
Fri 11:41:39 AM 33.0378 -79.6714 56° Northeast 320 368 10,000  Level Jacksonville Center
Fri 11:42:00 AM 33.2484 -79.3359 28° Northeast  Level FlightAware Approximate
Fri 11:42:39 AM 33.0897 -79.5803 56° Northeast 341 392 10,000  Level Jacksonville Center
Fri 11:43:39 AM 33.1394 -79.4892 57° Northeast 334 384 11,600 1,800 Climbing Jacksonville Center
Fri 11:44:39 AM 33.1892 -79.3953 58° Northeast 334 384 13,600 2,000 Climbing Jacksonville Center
Fri 11:45:39 AM 33.2625 -79.3331 35° Northeast 328 377 15,600 1,950 Climbing Jacksonville Center
Fri 11:46:39 AM 33.3425 -79.2825 28° Northeast 321 369 17,500 1,600 Climbing Jacksonville Center
Fri 11:47:39 AM 33.4244 -79.2319 27° Northeast 321 369 18,800 1,450 Climbing Jacksonville Center
Fri 11:48:39 AM 33.5061 -79.1761 30° Northeast 326 375 20,400 1,600 Climbing Jacksonville Center
Fri 11:49:39 AM 33.5903 -79.1228 28° Northeast 332 382 22,000 1,550 Climbing Jacksonville Center
Fri 11:50:39 AM 33.6822 -79.0639 28° Northeast 339 390 23,500 1,488 Climbing Jacksonville Center
Fri 11:51:40 AM 33.7681 -79.0028 31° Northeast 344 396 25,000 1,500 Climbing Jacksonville Center
Fri 11:52:39 AM 33.8561 -78.9489 27° Northeast 344 396 26,500 1,513 Climbing Jacksonville Center
Fri 11:53:39 AM 33.9419 -78.8925 29° Northeast 344 396 28,000 1,500 Climbing Jacksonville Center
Fri 11:54:39 AM 34.0258 -78.8383 28° Northeast 344 396 29,500 1,323 Climbing Jacksonville Center
Fri 11:56:54 AM 34.2081 -78.7183 29° Northeast 350 403 32,300 1,094 Climbing Washington Center
Fri 11:57:51 AM 34.2931 -78.6611 29° Northeast 350 403 33,000 356 Climbing Washington Center
Fri 11:58:52 AM 34.3786 -78.5789 38° Northeast 365 420 33,000  Level Washington Center
Fri 11:59:51 AM 34.4642 -78.4939 39° Northeast 385 443 33,000  Level Washington Center
Fri 12:00:52 PM 34.5456 -78.4058 42° Northeast 406 467 33,000  Level Washington Center
Fri 12:01:52 PM 34.6414 -78.3183 37° Northeast 406 467 33,000  Level Washington Center
Fri 12:02:53 PM 34.7269 -78.2278 41° Northeast 406 467 33,000  Level Washington Center
Fri 12:03:51 PM 34.7953 -78.1567 41° Northeast 406 467 33,000  Level Washington Center
Fri 12:04:52 PM 34.8892 -78.0583 41° Northeast 406 467 33,000  Level Washington Center
Fri 12:05:53 PM 34.9744 -77.9669 41° Northeast 406 467 33,000  Level Washington Center
Fri 12:06:51 PM 35.0597 -77.8808 40° Northeast 406 467 33,000  Level Washington Center
Fri 12:07:52 PM 35.1428 -77.7917 41° Northeast 401 461 33,000  Level Washington Center
Fri 12:08:52 PM 35.2297 -77.7025 40° Northeast 401 461 33,000  Level Washington Center
Fri 12:09:53 PM 35.3147 -77.6156 40° Northeast 401 461 33,000  Level Washington Center
Fri 12:10:53 PM 35.4017 -77.5336 38° Northeast 396 456 33,000  Level Washington Center
Fri 12:11:52 PM 35.4906 -77.4542 36° Northeast 390 449 33,000  Level Washington Center
Fri 12:12:53 PM 35.5900 -77.3697 35° Northeast 390 449 33,000  Level Washington Center
Fri 12:13:51 PM 35.6786 -77.2925 35° Northeast 395 455 33,000  Level Washington Center
Fri 12:14:51 PM 35.7675 -77.2125 36° Northeast 390 449 33,000  Level Washington Center
Fri 12:15:51 PM 35.8561 -77.1347 35° Northeast 390 449 33,000  Level Washington Center
Fri 12:16:52 PM 35.9281 -77.0644 38° Northeast 373 429 33,000  Level Washington Center
Fri 12:17:53 PM 36.0206 -76.9892 33° Northeast 378 435 33,000  Level Washington Center
Fri 12:18:53 PM 36.1069 -76.9108 36° Northeast 383 441 33,000  Level Washington Center
Fri 12:19:51 PM 36.1936 -76.8300 37° Northeast 390 449 33,000  Level Washington Center
Fri 12:20:51 PM 36.2819 -76.7567 34° Northeast 390 449 33,000  Level Washington Center
Fri 12:21:52 PM 36.3703 -76.6753 37° Northeast 390 449 33,000  Level Washington Center
Fri 12:22:52 PM 36.4586 -76.5967 36° Northeast 390 449 33,000  Level Washington Center
Fri 12:23:53 PM 36.5447 -76.5175 36° Northeast 390 449 33,000  Level Washington Center
Fri 12:24:53 PM 36.6328 -76.4383 36° Northeast 390 449 33,000  Level Washington Center
Fri 12:25:51 PM 36.7211 -76.3589 36° Northeast 390 449 33,000  Level Washington Center
Fri 12:26:53 PM 36.8092 -76.2819 35° Northeast 390 449 33,000  Level Washington Center
Fri 12:27:51 PM 36.8992 -76.2075 33° Northeast 390 449 33,000  Level Washington Center
Fri 12:28:52 PM 37.0100 -76.1458 24° Northeast 385 443 33,000  Level Washington Center
Fri 12:29:52 PM 37.1064 -76.0919 24° Northeast 379 436 33,000  Level Washington Center
Fri 12:30:52 PM 37.2086 -76.0378 23° Northeast 379 436 33,000  Level Washington Center
Fri 12:31:53 PM 37.3092 -75.9836 23° Northeast 384 442 33,000  Level Washington Center
Fri 12:32:53 PM 37.4094 -75.9292 23° Northeast 384 442 33,000  Level Washington Center
Fri 12:33:51 PM 37.5097 -75.8772 22° Northeast 384 442 33,000  Level Washington Center
Fri 12:34:52 PM 37.6036 -75.8094 30° Northeast 384 442 33,000  Level Washington Center
Fri 12:35:53 PM 37.6997 -75.7389 30° Northeast 384 442 33,000  Level Washington Center
Fri 12:36:51 PM 37.7956 -75.6681 30° Northeast 394 453 33,000  Level Washington Center
Fri 12:37:51 PM 37.8917 -75.5969 30° Northeast 399 459 33,000  Level Washington Center
Fri 12:38:53 PM 37.9875 -75.5206 32° Northeast 399 459 33,000  Level Washington Center
Fri 12:39:54 PM 38.0833 -75.4519 29° Northeast 399 459 33,000  Level Washington Center
Fri 12:40:51 PM 38.1814 -75.3936 25° Northeast 394 453 33,000  Level Washington Center
Fri 12:41:51 PM 38.2814 -75.3325 26° Northeast 389 448 33,000  Level Washington Center
Fri 12:42:52 PM 38.3708 -75.2686 29° Northeast 389 448 33,000  Level Washington Center
Fri 12:43:52 PM 38.4769 -75.1967 28° Northeast 401 461 33,000  Level Washington Center
Fri 12:44:53 PM 38.5831 -75.1350 24° Northeast 411 473 33,000  Level Washington Center
Fri 12:45:51 PM 38.6889 -75.0625 28° Northeast 416 479 33,000  Level Washington Center
Fri 12:46:52 PM 38.7950 -74.9978 25° Northeast 421 484 33,000 -885 Level Washington Center
Fri 12:47:53 PM 38.9031 -74.9275 27° Northeast 426 490 31,200 -1,934 Descending Washington Center
Fri 12:48:53 PM 39.0111 -74.8569 27° Northeast 426 490 29,100 -2,085 Descending Washington Center
Fri 12:49:51 PM 39.1169 -74.7783 30° Northeast 426 490 27,100 -1,988 Descending Washington Center
Fri 12:51:42 PM 39.2972 -74.5858 40° Northeast 463 533 23,500 -1,930 Descending New York Center
Fri 12:52:42 PM 39.3944 -74.4808 40° Northeast 463 533 21,600 -1,835 Descending New York Center
Fri 12:53:43 PM 39.4831 -74.3833 40° Northeast 442 509 19,800 -1,815 Descending New York Center
Fri 12:54:41 PM 39.5736 -74.2828 41° Northeast 394 453 18,000 -1,220 Descending New York Center
Fri 12:55:41 PM 39.6511 -74.2006 39° Northeast 370 426 17,400 -1,350 Descending New York Center
Fri 12:56:41 PM 39.7328 -74.1100 40° Northeast 370 426 15,300 -1,983 Descending New York Center
Fri 12:57:42 PM 39.8061 -74.0297 40° Northeast 370 426 13,400 -2,033 Descending New York Center
Fri 12:58:42 PM 39.8958 -73.9500 34° Northeast 360 414 11,200 -1,190 Descending New York Center
Fri 12:59:43 PM 39.9722 -73.8994 27° Northeast 322 371 11,000 -353 Descending New York Center
Fri 01:00:41 PM 40.0458 -73.8756 14° North 280 322 10,500 -1,220 Descending New York Center
Fri 01:01:41 PM 40.1089 -73.8539 15° North 259 298 8,600 -1,891 Descending New York Center
Fri 01:02:13 PM 40.1500 -73.8167 35° Northeast 268 308 7,600 -1,793 Descending New York TRACON
Fri 01:03:08 PM 40.2000 -73.7667 37° Northeast 259 298 6,000 -1,707 Descending New York TRACON
Fri 01:04:09 PM 40.2667 -73.7167 30° Northeast 246 283 4,300 -1,613 Descending New York TRACON
Fri 01:05:07 PM 40.3167 -73.6833 27° Northeast 236 272 2,800 -1,169 Descending New York TRACON
Fri 01:06:07 PM 40.3833 -73.6333 30° Northeast 244 281 2,000 -347 Descending New York TRACON
Fri 01:07:08 PM 40.4333 -73.6000 27° Northeast 239 275 2,100 50 Climbing New York TRACON
Fri 01:08:08 PM 40.5000 -73.6000 360° North 244 281 2,100  Level New York TRACON

Login

Don't have an account? Register now (free) for customized features, flight alerts, and more!